Isle of Tiree, United Kingdom
Current Conditions -  °F | °C
As of 7:50 AM on Sunday 26 Oct 2014 (Local Time) from EGPU Reporting Station
Light Rain Light Rain  
Wind Chill: 54°   Ceiling: 4500
Heat Index: 54°   Visibility: 6mi
Dew Point: 50°   Wind: 32mph
Humidity: 88%   Direction: 230°SW
Pressure: 29.5"   Gusts: 46mph
Location:  56.51°N, 6.81°W
Report Text: EGPU 260650Z AUTO 23028G40KT 9999 -RA FEW023/// BKN045/// 12/10 Q0999
Loading
Personal Weather Stations






























Interactive Weather Map
Tropical Storm Tracking
New forecast layout! Learn more

10-Day Weather Forecast

Advertisements
Track Severe Weather on mobile